Verona, KY (41092)

5:30 AM EDT on July 26, 2016 (GMT -0400)
Mars Place | | Change Station

Elev 817 ft 38.78 °N, 84.70 °W | Updated 1 minute ago

Overcast
Overcast
72.3 °F
Feels Like 70 °F
N
0.0
Wind Variable Wind from South

Today
High -- | Low -- °F
--% Chance of Precip.
Yesterday
High -- | Low -- °F
Precip. -- in
Pressure 29.98 in
Visibility 7.0 miles
Clouds Mostly Cloudy 4600 ft
Mostly Cloudy 5500 ft
Overcast 20000 ft
Heat Index 70 °F
Dew Point 68 °F
Humidity 88%
Rainfall 0.00 in
Snow Depth Not available.
6:35 AM 8:54 PM
Waning Gibbous, 56% visible
METAR KCVG 260852Z 00000KT 7SM BKN046 BKN055 OVC200 25/24 A3001 RMK AO2 SLP151 T02500244 50000
Pressure 29.98 in
Visibility 7.0 miles
Clouds Mostly Cloudy 4600 ft
Mostly Cloudy 5500 ft
Overcast 20000 ft
Heat Index 70 °F
Dew Point 68 °F
Humidity 88%
Rainfall 0.00 in
Snow Depth Not available.
6:35 AM 8:54 PM
Waning Gibbous, 56% visible
METAR KCVG 260852Z 00000KT 7SM BKN046 BKN055 OVC200 25/24 A3001 RMK AO2 SLP151 T02500244 50000

10-Day Weather Forecast

Almanac

Astronomy

Jul. 26, 2016 Rise Set
Actual Time
Civil Twilight
Nautical Twilight
Astronomical Twilight
Moon
Length of Visible Light
Length of Day
Tomorrow will be .
, % of the Moon is Illuminated

Today's Extremes

State Highs State Lows

Community

WunderPhotos

Upload Photos

1,927,556 photos uploaded!

WunderBlog® & News

Nearby

Air Quality

  Air Quality AQ Index Pollutant
Not available.

Snow Depth

Station Depth Elevation

Earthquake Activity

City Distance Mag. Time & Date
Minimum magnitude displayed is 2.5.

Coastal Water Temperatures

Place Temperature

Stations

Nearby Weather Stations

Station Location Temp. Windchill Dew Point Humidity Wind Precip. Elev Updated Type
                   

Watches & Warnings

There are currently no watches in effect.